createdAt,value
2023-05-16T03:25:09.145Z,31.05
2023-05-16T03:28:13.348Z,33.15
2023-05-16T03:56:15.081Z,36.00
2023-05-16T04:10:40.032Z,35.20
2023-05-16T04:41:37.376Z,39.58
2023-05-16T04:44:40.056Z,37.35
2023-05-16T04:47:42.947Z,36.63
2023-05-16T04:50:49.489Z,36.20
2023-05-16T04:53:54.278Z,38.00
2023-05-16T05:16:38.728Z,29.05
2023-05-16T05:31:17.962Z,27.13
2023-05-16T05:34:21.139Z,23.80
2023-05-16T05:37:23.696Z,24.10
2023-05-16T05:40:26.376Z,20.95
2023-05-16T05:43:29.234Z,23.42
2023-05-16T05:46:34.599Z,24.42
2023-05-16T05:49:37.118Z,19.88
2023-05-16T05:52:39.848Z,20.85
2023-05-16T05:55:42.670Z,20.27
2023-05-16T05:58:45.913Z,25.92
2023-05-16T06:01:52.798Z,25.65
2023-05-16T06:11:29.800Z,25.88
2023-05-16T06:21:35.436Z,27.40
2023-05-16T06:24:40.923Z,24.75
2023-05-16T06:27:43.770Z,21.48
2023-05-16T06:30:47.863Z,20.15
2023-05-16T06:33:54.956Z,23.70
2023-05-16T06:36:59.731Z,21.08
2023-05-16T06:40:02.296Z,26.15
2023-05-16T06:43:04.835Z,24.15
2023-05-16T06:46:07.397Z,21.90
2023-05-16T06:49:09.921Z,22.33
2023-05-16T06:52:13.786Z,19.65
2023-05-16T06:55:16.835Z,19.48
2023-05-16T06:58:19.440Z,20.88
2023-05-16T07:01:22.005Z,23.63
2023-05-16T07:04:24.555Z,22.75
2023-05-16T07:07:28.597Z,21.42
2023-05-16T07:10:31.199Z,23.85
2023-05-16T07:13:35.831Z,22.83
2023-05-16T07:16:38.913Z,19.10
2023-05-16T07:19:41.549Z,17.35
2023-05-16T07:22:45.478Z,18.90
2023-05-16T07:25:48.067Z,21.30
2023-05-16T07:28:50.782Z,17.08
2023-05-16T07:31:53.313Z,18.63
2023-05-16T07:34:55.826Z,19.48
2023-05-16T07:37:59.691Z,21.20
2023-05-16T07:41:02.469Z,15.52
2023-05-16T07:44:05.049Z,15.25
2023-05-16T07:47:07.702Z,19.80
2023-05-16T07:50:11.676Z,15.40
2023-05-16T07:53:15.519Z,18.90
2023-05-16T07:56:18.398Z,13.93
2023-05-16T07:59:21.097Z,14.88
2023-05-16T08:02:24.752Z,19.38
2023-05-16T08:05:27.578Z,12.55
2023-05-16T08:08:31.672Z,10.93
2023-05-16T08:11:34.260Z,16.17
2023-05-16T08:14:37.062Z,9.90
2023-05-16T08:17:39.939Z,11.70
2023-05-16T08:20:42.753Z,14.18
2023-05-16T08:23:46.677Z,11.02
2023-05-16T08:26:49.177Z,11.65
2023-05-16T08:29:51.672Z,9.57
2023-05-16T08:32:54.329Z,11.88
2023-05-16T08:35:57.012Z,11.80
2023-05-16T08:39:00.848Z,13.48
2023-05-16T08:42:05.248Z,10.02
2023-05-16T08:45:09.042Z,12.63
2023-05-16T08:48:12.506Z,10.95
2023-05-16T08:51:18.338Z,11.30
2023-05-16T08:54:22.762Z,11.93
2023-05-16T08:57:25.810Z,9.30
2023-05-16T09:00:29.024Z,9.35
2023-05-16T09:03:31.987Z,11.07
2023-05-16T09:06:34.563Z,9.10
2023-05-16T09:09:38.877Z,9.93
2023-05-16T09:12:42.382Z,12.23
2023-05-16T09:15:45.604Z,11.13
2023-05-16T09:18:55.514Z,11.00
2023-05-16T09:22:00.475Z,7.78
2023-05-16T09:25:06.969Z,7.95
2023-05-16T09:28:12.092Z,9.60
2023-05-16T09:31:22.550Z,9.15
2023-05-16T09:34:25.069Z,7.85
2023-05-16T09:37:27.563Z,11.10
2023-05-16T09:40:31.486Z,7.57
2023-05-16T09:43:35.627Z,6.85
2023-05-16T09:46:39.822Z,8.82
2023-05-16T09:49:42.424Z,7.03
2023-05-16T09:52:45.340Z,7.57
2023-05-16T09:55:49.201Z,10.80
2023-05-16T09:58:53.158Z,7.85
2023-05-16T10:01:55.904Z,7.78
2023-05-16T10:04:58.557Z,5.63
2023-05-16T10:08:03.804Z,11.55
2023-05-16T10:11:07.974Z,11.07
2023-05-16T10:14:11.765Z,6.97
2023-05-16T10:17:17.066Z,11.13
2023-05-16T10:20:21.463Z,7.53
2023-05-16T10:23:27.050Z,8.57
2023-05-16T10:26:31.713Z,6.80
2023-05-16T10:29:46.477Z,6.13
2023-05-16T10:32:57.580Z,8.88
2023-05-16T10:36:00.363Z,9.73
2023-05-16T10:39:04.221Z,8.32
2023-05-16T10:42:09.025Z,5.22
2023-05-16T10:45:18.343Z,7.25
2023-05-16T10:48:30.390Z,8.30
2023-05-16T10:51:37.656Z,9.15
2023-05-16T10:54:42.189Z,7.32
2023-05-16T10:57:46.158Z,9.13
2023-05-16T11:00:49.960Z,6.72
2023-05-16T11:04:10.065Z,3.63
2023-05-16T11:07:13.046Z,5.35
2023-05-16T11:10:17.425Z,7.22
2023-05-16T11:13:25.653Z,8.27
2023-05-16T11:16:29.323Z,5.43
2023-05-16T11:19:35.072Z,6.43
2023-05-16T11:22:41.389Z,8.27
2023-05-16T11:25:45.818Z,6.18
2023-05-16T11:28:51.852Z,6.97
2023-05-16T11:31:54.463Z,9.80
2023-05-16T11:34:57.402Z,8.27
2023-05-16T11:38:00.192Z,6.10
2023-05-16T11:41:06.803Z,12.95
2023-05-16T11:44:12.589Z,8.50
2023-05-16T11:47:15.643Z,11.55
2023-05-16T11:50:19.692Z,9.27
2023-05-16T11:53:23.386Z,11.07
2023-05-16T11:56:26.346Z,12.55
2023-05-16T11:59:31.146Z,7.82
2023-05-16T12:02:34.318Z,6.00
2023-05-16T12:05:37.117Z,9.15
2023-05-16T12:08:39.781Z,10.55
2023-05-16T12:11:44.017Z,9.60
2023-05-16T12:14:48.191Z,8.20
2023-05-16T12:17:52.128Z,8.25
2023-05-16T12:20:54.749Z,9.43
2023-05-16T12:23:58.518Z,6.88
2023-05-16T12:27:01.032Z,7.70
2023-05-16T12:30:05.368Z,9.32
2023-05-16T12:33:10.503Z,9.07
2023-05-16T12:36:15.495Z,6.00
2023-05-16T12:39:18.238Z,8.40
2023-05-16T12:42:20.957Z,6.38
2023-05-16T12:45:25.328Z,8.70
2023-05-16T12:48:34.076Z,8.85
2023-05-16T12:51:36.684Z,7.50
2023-05-16T12:54:39.517Z,7.15
2023-05-16T12:57:43.372Z,8.13
2023-05-16T13:00:47.208Z,5.18
2023-05-16T13:03:49.811Z,12.15
2023-05-16T13:09:58.588Z,7.07
2023-05-16T13:13:01.130Z,8.18
2023-05-16T13:16:05.280Z,8.75
2023-05-16T13:19:07.987Z,4.32
2023-05-16T13:22:10.728Z,6.90
2023-05-16T13:25:13.379Z,8.43
2023-05-16T13:28:15.894Z,4.97
2023-05-16T13:31:19.871Z,6.47
2023-05-16T13:34:22.414Z,9.20
2023-05-16T13:37:25.775Z,6.38
2023-05-16T13:40:29.394Z,4.72
2023-05-16T13:43:31.974Z,7.57
2023-05-16T13:46:36.047Z,3.90
2023-05-16T13:49:38.994Z,8.45
2023-05-16T13:52:41.582Z,9.63
2023-05-16T13:55:45.043Z,6.55
2023-05-16T13:59:00.719Z,6.70
2023-05-16T14:02:07.924Z,8.85
2023-05-16T14:05:10.916Z,5.88
2023-05-16T14:08:14.383Z,5.50
2023-05-16T14:11:19.580Z,8.70
2023-05-16T14:14:22.111Z,6.57
2023-05-16T14:17:26.853Z,5.43
2023-05-16T14:20:29.378Z,8.20
2023-05-16T14:23:31.936Z,7.80
2023-05-16T14:26:34.507Z,8.27
2023-05-16T14:29:37.097Z,6.00
2023-05-16T14:32:40.991Z,8.85
2023-05-16T14:35:43.534Z,8.20
2023-05-16T14:38:46.066Z,6.30
2023-05-16T14:41:48.570Z,5.28
2023-05-16T14:44:51.290Z,3.45
2023-05-16T14:47:55.187Z,6.97
2023-05-16T14:51:00.889Z,4.43
2023-05-16T14:54:03.436Z,8.23
2023-05-16T14:57:07.350Z,8.13
2023-05-16T15:00:11.707Z,5.70
2023-05-16T15:03:17.747Z,4.45
2023-05-16T15:06:20.325Z,7.22
2023-05-16T15:09:22.847Z,6.53
2023-05-16T15:12:25.362Z,6.85
2023-05-16T15:15:28.545Z,8.70
2023-05-16T15:18:32.436Z,9.13
2023-05-16T15:21:35.118Z,2.85
2023-05-16T15:24:37.784Z,5.43
2023-05-16T15:27:40.551Z,4.60
2023-05-16T15:30:43.140Z,4.40
2023-05-16T15:33:48.572Z,5.60
2023-05-16T15:36:51.813Z,4.55
2023-05-16T15:39:54.317Z,3.85
2023-05-16T15:42:56.861Z,4.22
2023-05-16T15:45:59.450Z,3.85
2023-05-16T15:49:03.390Z,2.58
2023-05-16T15:52:06.501Z,5.70
2023-05-16T15:55:11.892Z,5.53
2023-05-16T15:58:14.439Z,3.65
2023-05-16T16:01:17.706Z,4.47
2023-05-16T16:04:23.380Z,7.13
2023-05-16T16:07:26.381Z,4.75
2023-05-16T16:10:28.901Z,6.65
2023-05-16T16:13:31.920Z,4.93
2023-05-16T16:16:34.628Z,3.55
2023-05-16T16:19:38.524Z,3.50
2023-05-16T16:22:41.003Z,3.15
2023-05-16T16:25:43.539Z,3.78
2023-05-16T16:28:46.033Z,3.95
2023-05-16T16:31:48.822Z,6.50
2023-05-16T16:34:52.788Z,7.78
2023-05-16T16:41:04.990Z,7.00
2023-05-16T16:44:07.520Z,8.48
2023-05-16T16:47:10.423Z,4.18
2023-05-16T16:50:14.312Z,4.88
2023-05-16T16:53:16.896Z,6.57
2023-05-16T16:56:19.676Z,4.25
2023-05-16T16:59:22.238Z,6.28
2023-05-16T17:02:24.928Z,3.17
2023-05-16T17:05:28.968Z,3.65
2023-05-16T17:08:31.774Z,3.10
2023-05-16T17:11:36.349Z,4.88
2023-05-16T17:14:38.884Z,3.20
2023-05-16T17:17:41.510Z,3.75
2023-05-16T17:20:45.399Z,4.15
2023-05-16T17:23:50.368Z,9.35
2023-05-16T17:26:55.810Z,5.47
2023-05-16T17:29:58.662Z,2.60
2023-05-16T17:33:01.251Z,6.13
2023-05-16T17:36:06.063Z,6.72
2023-05-16T17:39:10.492Z,6.80
2023-05-16T17:42:13.006Z,4.72
2023-05-16T17:45:16.398Z,8.70
2023-05-16T17:48:19.146Z,3.17
2023-05-16T17:51:23.075Z,7.22
2023-05-16T17:54:27.204Z,4.25
2023-05-16T17:57:29.704Z,6.05
2023-05-16T18:00:32.711Z,5.00
2023-05-16T18:03:35.283Z,2.00
2023-05-16T18:06:39.631Z,5.35
2023-05-16T18:09:42.133Z,6.05
2023-05-16T18:12:44.861Z,4.75
2023-05-16T18:15:47.744Z,3.00
2023-05-16T18:18:53.363Z,6.05
2023-05-16T18:21:58.475Z,3.10
2023-05-16T18:25:01.243Z,3.75
2023-05-16T18:28:04.644Z,1.60
2023-05-16T18:31:07.663Z,3.92
2023-05-16T18:34:10.645Z,6.47
2023-05-16T18:37:14.570Z,3.20
2023-05-16T18:40:17.977Z,4.28
2023-05-16T18:43:20.605Z,4.20
2023-05-16T18:46:23.208Z,4.78
2023-05-16T18:49:26.008Z,3.58
2023-05-16T18:52:29.863Z,4.35
2023-05-16T18:55:32.667Z,3.70
2023-05-16T18:58:35.157Z,4.95
2023-05-16T19:01:37.841Z,3.80
2023-05-16T19:04:40.560Z,4.88
2023-05-16T19:07:44.522Z,2.50
2023-05-16T19:10:47.133Z,4.15
2023-05-16T19:13:49.786Z,3.17
2023-05-16T19:16:52.439Z,5.03
2023-05-16T19:19:55.008Z,4.30
2023-05-16T19:22:58.885Z,2.97
2023-05-16T19:26:01.426Z,6.78
2023-05-16T19:29:03.967Z,3.25
2023-05-16T19:32:07.616Z,5.32
2023-05-16T19:35:10.871Z,6.47
2023-05-16T19:38:14.739Z,6.63
2023-05-16T19:41:17.970Z,4.55
2023-05-16T19:44:20.478Z,4.50
2023-05-16T19:47:23.007Z,4.25
2023-05-16T19:50:25.599Z,8.02
2023-05-16T19:53:29.582Z,4.32
2023-05-16T19:56:32.108Z,2.90
2023-05-16T19:59:34.723Z,5.20
2023-05-16T20:02:37.255Z,3.63
2023-05-16T20:05:39.798Z,6.90
2023-05-16T20:08:43.709Z,5.93
2023-05-16T20:11:46.309Z,2.92
2023-05-16T20:14:48.927Z,2.10
2023-05-16T20:17:51.477Z,2.75
2023-05-16T20:20:54.066Z,4.00
2023-05-16T20:23:57.916Z,4.25
2023-05-16T20:27:01.398Z,4.78
2023-05-16T20:30:06.442Z,3.03
2023-05-16T20:33:08.977Z,6.32
2023-05-16T20:36:11.533Z,5.13
2023-05-16T20:39:15.615Z,4.20
2023-05-16T20:42:18.111Z,5.13
2023-05-16T20:45:20.815Z,3.95
2023-05-16T20:48:23.389Z,2.28
2023-05-16T20:51:25.986Z,3.35
2023-05-16T20:54:29.857Z,3.55
2023-05-16T20:57:32.415Z,4.75
2023-05-16T21:00:35.119Z,3.22
2023-05-16T21:03:37.710Z,4.47
2023-05-16T21:18:48.621Z,5.32
2023-05-16T21:21:51.349Z,4.55
2023-05-16T21:24:53.930Z,3.45
2023-05-16T21:27:56.450Z,2.60
2023-05-16T21:30:58.968Z,3.45
2023-05-16T22:00:41.570Z,3.67
2023-05-16T22:03:44.364Z,6.68
2023-05-16T22:06:46.902Z,6.32
